Time;durP1;ratioP1;P1;durP2;ratioP2;P2;SDS_P1;SDS_P2;PMS_P1;PMS_P2;Temp;Humidity;BMP_temperature;BMP_pressure;BME280_temperature;BME280_humidity;BME280_pressure;Samples;Min_cycle;Max_cycle;Signal;HPM_P1;HPM_P2
2021/05/04 00:00:20;;;;;;;7.73;7.03;;;9.10;99.90;;;;;;5073788;28;20437;-46
2021/05/04 00:02:47;;;;;;;9.50;7.70;;;9.20;99.90;;;;;;5073448;28;20487;-46
2021/05/04 00:05:14;;;;;;;7.53;6.83;;;9.00;99.90;;;;;;5073528;28;20458;-46
2021/05/04 00:07:40;;;;;;;8.30;7.50;;;9.10;99.90;;;;;;5073607;28;20437;-47
2021/05/04 00:10:07;;;;;;;8.23;7.43;;;9.10;99.90;;;;;;5073476;28;20437;-47
2021/05/04 00:12:33;;;;;;;7.87;7.07;;;9.50;99.90;;;;;;5073396;28;20483;-47
2021/05/04 00:15:00;;;;;;;7.40;6.70;;;9.10;99.90;;;;;;5073763;28;20808;-47
2021/05/04 00:17:26;;;;;;;7.20;6.53;;;8.90;99.90;;;;;;5073628;28;20429;-46
2021/05/04 00:19:53;;;;;;;7.63;6.43;;;9.00;99.90;;;;;;5073512;28;20461;-46
2021/05/04 00:22:19;;;;;;;7.30;6.60;;;9.20;99.90;;;;;;5073288;28;20434;-46
2021/05/04 00:24:46;;;;;;;7.50;6.53;;;9.30;99.90;;;;;;5073243;28;20465;-46
2021/05/04 00:27:12;;;;;;;7.43;6.37;;;9.80;99.90;;;;;;5071856;28;20474;-47
2021/05/04 00:29:38;;;;;;;7.63;6.93;;;9.10;99.90;;;;;;5071497;28;20434;-46
2021/05/04 00:32:05;;;;;;;7.30;6.60;;;9.40;99.90;;;;;;5072708;28;20432;-47
2021/05/04 00:34:32;;;;;;;8.00;7.17;;;9.60;99.90;;;;;;5072835;28;20703;-46
2021/05/04 00:36:59;;;;;;;7.10;6.40;;;8.80;99.90;;;;;;5072983;28;20433;-47
2021/05/04 00:39:29;;;;;;;7.70;6.07;;;9.00;99.90;;;;;;5073005;28;20817;-46
2021/05/04 00:41:56;;;;;;;7.33;6.63;;;9.70;99.90;;;;;;5073054;28;20441;-46
2021/05/04 00:44:22;;;;;;;6.90;6.20;;;9.10;99.90;;;;;;5072406;28;20464;-46
2021/05/04 00:46:49;;;;;;;8.53;5.60;;;9.30;99.90;;;;;;5072819;28;20477;-45
2021/05/04 00:49:16;;;;;;;6.00;5.50;;;9.30;99.90;;;;;;5072915;28;20795;-46
2021/05/04 00:51:42;;;;;;;5.73;5.23;;;9.20;99.90;;;;;;5072763;28;20905;-46
2021/05/04 00:54:09;;;;;;;6.07;5.47;;;9.80;99.90;;;;;;5072189;28;20469;-46
2021/05/04 00:56:38;;;;;;;5.90;5.40;;;9.90;99.90;;;;;;5072729;28;20933;-45
2021/05/04 00:59:05;;;;;;;6.00;5.40;;;8.90;99.70;;;;;;5072544;28;20426;-45
2021/05/04 01:01:32;;;;;;;5.67;5.17;;;9.40;99.90;;;;;;5072501;28;20902;-46
2021/05/04 01:03:59;;;;;;;7.33;5.37;;;9.40;99.80;;;;;;5072032;28;20478;-45
2021/05/04 01:06:25;;;;;;;6.30;5.50;;;8.80;99.30;;;;;;5072328;28;20993;-46
2021/05/04 01:08:51;;;;;;;6.07;5.57;;;9.40;99.50;;;;;;5072342;28;20433;-46
2021/05/04 01:11:18;;;;;;;7.77;6.57;;;9.60;99.60;;;;;;5072371;28;20442;-46
2021/05/04 01:13:46;;;;;;;6.50;5.67;;;9.30;99.30;;;;;;5072015;28;20479;-46
2021/05/04 01:16:12;;;;;;;5.87;4.80;;;9.40;99.30;;;;;;5072230;28;20433;-45
2021/05/04 01:18:38;;;;;;;5.77;5.17;;;9.90;99.30;;;;;;5072277;28;20486;-46
2021/05/04 01:21:06;;;;;;;6.73;5.60;;;9.50;99.10;;;;;;5072253;28;20468;-46
2021/05/04 01:23:33;;;;;;;6.07;5.20;;;9.30;99.00;;;;;;5071680;28;20991;-45
2021/05/04 01:25:59;;;;;;;6.90;6.20;;;9.50;99.00;;;;;;5070750;28;20484;-46
2021/05/04 01:28:26;;;;;;;6.53;5.93;;;9.80;99.00;;;;;;5072041;28;20441;-45
2021/05/04 01:30:52;;;;;;;5.87;5.37;;;8.80;98.40;;;;;;5071934;28;20487;-46
2021/05/04 01:33:18;;;;;;;7.47;5.70;;;9.40;98.70;;;;;;5071574;28;20429;-46
2021/05/04 01:35:45;;;;;;;5.97;5.37;;;9.40;98.60;;;;;;5071864;28;20445;-46
2021/05/04 01:38:12;;;;;;;6.60;5.50;;;9.40;98.60;;;;;;5071617;28;20785;-45
2021/05/04 01:40:38;;;;;;;6.10;5.50;;;9.30;98.40;;;;;;5071878;28;20436;-45
2021/05/04 01:43:04;;;;;;;8.47;5.87;;;9.70;98.50;;;;;;5071420;28;20952;-45
2021/05/04 01:45:30;;;;;;;5.63;4.97;;;9.30;98.30;;;;;;5071729;28;20519;-46
2021/05/04 01:47:57;;;;;;;6.17;5.53;;;9.60;98.50;;;;;;5070492;28;20461;-46
2021/05/04 01:50:23;;;;;;;5.70;5.00;;;9.50;98.30;;;;;;5070650;28;20450;-46
2021/05/04 01:52:50;;;;;;;6.50;5.33;;;9.40;98.20;;;;;;5071969;28;20491;-46
2021/05/04 01:55:17;;;;;;;7.50;5.20;;;9.30;98.10;;;;;;5072307;28;20457;-46
2021/05/04 01:57:43;;;;;;;5.03;4.53;;;9.60;98.10;;;;;;5072371;28;20531;-46
2021/05/04 02:00:10;;;;;;;5.50;5.00;;;9.30;98.00;;;;;;5071710;28;20430;-46
2021/05/04 02:02:37;;;;;;;7.87;5.67;;;9.50;98.10;;;;;;5071589;28;20507;-46
2021/05/04 02:05:05;;;;;;;5.87;5.30;;;9.30;98.00;;;;;;5070305;28;20989;-46
2021/05/04 02:07:31;;;;;;;5.97;5.40;;;9.40;98.00;;;;;;5071583;28;20543;-46
2021/05/04 02:09:57;;;;;;;6.37;5.47;;;9.20;97.90;;;;;;5071651;28;20913;-46
2021/05/04 02:12:24;;;;;;;5.90;5.00;;;9.50;97.90;;;;;;5071404;28;20827;-46
2021/05/04 02:14:51;;;;;;;6.50;5.60;;;9.60;98.00;;;;;;5071645;28;20495;-47
2021/05/04 02:17:18;;;;;;;6.37;5.40;;;9.30;97.80;;;;;;5072661;28;20444;-46
2021/05/04 02:19:44;;;;;;;6.00;5.50;;;9.60;98.00;;;;;;5073517;28;20528;-46
2021/05/04 02:22:11;;;;;;;7.47;4.67;;;9.30;97.90;;;;;;5071751;28;20938;-46
2021/05/04 02:24:38;;;;;;;5.90;5.30;;;9.40;97.90;;;;;;5071350;28;20460;-46
2021/05/04 02:27:05;;;;;;;7.23;5.80;;;9.90;98.10;;;;;;5071689;28;20501;-46
2021/05/04 02:29:32;;;;;;;7.93;5.60;;;9.30;97.80;;;;;;5071674;28;20848;-46
2021/05/04 02:31:58;;;;;;;5.20;4.70;;;9.40;97.90;;;;;;5071821;28;20477;-46
2021/05/04 02:34:24;;;;;;;6.57;5.87;;;9.10;97.70;;;;;;5071199;28;20453;-46
2021/05/04 02:36:50;;;;;;;6.87;5.40;;;9.80;98.10;;;;;;5071476;28;20430;-46
2021/05/04 02:39:16;;;;;;;6.17;5.57;;;9.80;98.00;;;;;;5071370;28;20446;-46
2021/05/04 02:41:43;;;;;;;6.20;5.60;;;9.50;97.90;;;;;;5071000;28;20536;-46
2021/05/04 02:44:09;;;;;;;5.90;5.30;;;9.60;97.90;;;;;;5069468;28;20466;-46
2021/05/04 02:46:36;;;;;;;6.17;5.57;;;9.70;97.70;;;;;;5069367;28;20473;-46
2021/05/04 02:49:02;;;;;;;6.63;5.93;;;9.40;97.80;;;;;;5071020;28;20425;-46
2021/05/04 02:51:29;;;;;;;6.27;5.37;;;9.50;97.70;;;;;;5071223;28;20520;-46
2021/05/04 02:53:55;;;;;;;5.47;4.97;;;9.00;97.60;;;;;;5072363;28;20469;-46
2021/05/04 02:56:22;;;;;;;6.20;5.60;;;9.40;97.70;;;;;;5075875;28;20434;-46
2021/05/04 02:58:48;;;;;;;5.87;5.27;;;9.60;97.80;;;;;;5075777;28;20945;-46
2021/05/04 03:01:14;;;;;;;10.63;5.93;;;9.70;97.80;;;;;;5076026;28;20479;-46
2021/05/04 03:03:41;;;;;;;6.77;6.00;;;9.60;97.70;;;;;;5074614;28;20426;-46
2021/05/04 03:06:08;;;;;;;6.53;5.43;;;9.40;97.60;;;;;;5075138;28;20465;-46
2021/05/04 03:08:34;;;;;;;6.03;5.53;;;9.70;97.70;;;;;;5074853;28;20610;-46
2021/05/04 03:11:00;;;;;;;9.40;5.90;;;9.20;97.50;;;;;;5074719;28;20990;-46
2021/05/04 03:13:29;;;;;;;6.13;5.60;;;9.30;97.50;;;;;;5074860;28;20520;-46
2021/05/04 03:15:56;;;;;;;6.23;5.63;;;9.30;97.50;;;;;;5074340;28;20430;-46
2021/05/04 03:18:22;;;;;;;6.47;5.87;;;9.40;97.50;;;;;;5074445;28;20981;-46
2021/05/04 03:20:49;;;;;;;6.43;5.83;;;9.50;97.60;;;;;;5074413;28;20437;-46
2021/05/04 03:23:16;;;;;;;5.53;5.03;;;9.50;97.40;;;;;;5074031;28;20437;-46
2021/05/04 03:25:43;;;;;;;7.20;6.50;;;9.60;97.60;;;;;;5072830;28;20472;-46
2021/05/04 03:28:09;;;;;;;9.97;6.20;;;9.20;97.40;;;;;;5074155;28;20514;-46
2021/05/04 03:30:39;;;;;;;8.20;5.90;;;9.80;97.70;;;;;;5074168;28;20464;-46
2021/05/04 03:33:05;;;;;;;6.27;5.67;;;9.30;97.40;;;;;;5073826;28;20429;-46
2021/05/04 03:35:32;;;;;;;8.93;6.10;;;9.30;97.50;;;;;;5074019;28;21053;-46
2021/05/04 03:38:00;;;;;;;8.83;6.30;;;9.10;97.40;;;;;;5074172;28;20454;-46
2021/05/04 03:40:26;;;;;;;7.77;6.73;;;9.30;97.50;;;;;;5074629;28;20470;-46
2021/05/04 03:42:53;;;;;;;6.87;6.17;;;9.30;97.50;;;;;;5072919;28;20938;-46
2021/05/04 03:45:19;;;;;;;7.40;6.10;;;9.30;97.50;;;;;;5074401;28;20545;-46
2021/05/04 03:47:46;;;;;;;8.50;7.00;;;9.80;97.70;;;;;;5074785;28;20993;-46
2021/05/04 03:50:15;;;;;;;7.37;6.57;;;9.30;97.50;;;;;;5074522;28;20457;-46
2021/05/04 03:52:42;;;;;;;7.83;6.40;;;9.40;97.50;;;;;;5074485;28;20441;-46
2021/05/04 03:55:10;;;;;;;7.23;6.10;;;9.50;97.50;;;;;;5074760;28;20453;-46
2021/05/04 03:57:37;;;;;;;7.53;6.60;;;9.30;97.20;;;;;;5074974;28;20458;-46
2021/05/04 04:00:06;;;;;;;6.93;6.23;;;9.20;97.10;;;;;;5073935;28;20437;-46
2021/05/04 04:02:33;;;;;;;7.80;6.80;;;9.60;97.20;;;;;;5073373;28;20488;-46
2021/05/04 04:05:00;;;;;;;6.97;6.30;;;9.50;97.00;;;;;;5073531;28;20531;-45
2021/05/04 04:07:26;;;;;;;11.17;6.20;;;9.60;96.90;;;;;;5073660;28;20513;-46
2021/05/04 04:09:52;;;;;;;9.37;7.83;;;10.00;96.50;;;;;;5073907;28;20428;-45
2021/05/04 04:12:19;;;;;;;10.03;7.03;;;9.70;96.90;;;;;;5072201;28;20945;-45
2021/05/04 04:14:45;;;;;;;8.90;7.10;;;9.50;96.70;;;;;;5073312;28;20804;-46
2021/05/04 04:17:12;;;;;;;8.37;7.43;;;9.60;96.70;;;;;;5073509;28;20422;-46
2021/05/04 04:19:38;;;;;;;7.90;6.00;;;9.90;96.70;;;;;;5073105;28;20642;-46
2021/05/04 04:22:04;;;;;;;8.03;7.10;;;9.80;96.60;;;;;;5073284;28;20813;-46
2021/05/04 04:24:30;;;;;;;7.20;6.50;;;9.60;96.30;;;;;;5072655;28;20485;-45
2021/05/04 04:26:57;;;;;;;7.50;6.80;;;10.10;96.00;;;;;;5073273;28;20834;-46
2021/05/04 04:29:24;;;;;;;9.07;7.53;;;10.10;96.00;;;;;;5072955;28;20475;-46
2021/05/04 04:31:50;;;;;;;8.10;7.30;;;10.30;96.00;;;;;;5073173;28;20745;-46
2021/05/04 04:34:16;;;;;;;7.30;6.50;;;10.40;95.60;;;;;;5072518;28;20488;-46
2021/05/04 04:36:42;;;;;;;8.30;7.50;;;9.80;95.70;;;;;;5072949;28;20437;-46
2021/05/04 04:39:09;;;;;;;7.60;6.90;;;9.80;95.90;;;;;;5072451;28;20888;-46
2021/05/04 04:41:35;;;;;;;13.57;9.70;;;10.50;95.70;;;;;;5072782;28;20434;-46
2021/05/04 04:44:02;;;;;;;9.83;6.63;;;10.00;95.30;;;;;;5095643;22;20465;-49
2021/05/04 04:46:39;;;;;;;8.07;7.27;;;9.80;95.70;;;;;;5050646;28;20480;-49
2021/05/04 04:49:05;;;;;;;8.90;6.40;;;9.80;95.70;;;;;;5051702;28;20575;-49
2021/05/04 04:51:32;;;;;;;9.00;7.90;;;9.80;95.60;;;;;;5051311;28;20442;-48
2021/05/04 04:53:58;;;;;;;10.20;7.30;;;10.00;95.10;;;;;;5050938;28;20466;-49
2021/05/04 04:56:24;;;;;;;7.33;6.53;;;10.00;94.90;;;;;;5051407;28;20492;-50
2021/05/04 04:58:51;;;;;;;10.20;7.70;;;10.00;95.00;;;;;;5051189;28;20769;-49
2021/05/04 05:01:17;;;;;;;8.80;7.40;;;10.20;95.00;;;;;;5051118;28;20446;-50
2021/05/04 05:03:44;;;;;;;9.00;7.70;;;10.40;95.20;;;;;;5050651;28;20799;-49
2021/05/04 05:06:10;;;;;;;8.70;7.33;;;10.10;95.10;;;;;;5051624;28;20521;-49
2021/05/04 05:08:36;;;;;;;7.27;6.60;;;10.30;94.90;;;;;;5033186;28;20456;-49
2021/05/04 05:11:02;;;;;;;7.67;6.97;;;10.70;95.20;;;;;;5052287;28;21014;-49
2021/05/04 05:13:29;;;;;;;8.63;7.17;;;10.20;94.70;;;;;;5051040;28;20459;-49
2021/05/04 05:15:55;;;;;;;56.57;25.50;;;10.50;95.00;;;;;;5050442;28;20539;-49
2021/05/04 05:18:21;;;;;;;12.37;8.77;;;10.40;94.70;;;;;;5050784;28;20442;-49
2021/05/04 05:20:48;;;;;;;9.10;7.50;;;10.30;94.80;;;;;;5051094;28;20588;-49
2021/05/04 05:23:14;;;;;;;18.73;7.20;;;10.50;94.60;;;;;;5050312;28;20470;-50
2021/05/04 05:25:41;;;;;;;8.17;7.03;;;10.20;94.30;;;;;;5050975;28;20515;-48
2021/05/04 05:28:08;;;;;;;10.03;6.53;;;10.00;94.10;;;;;;5050027;28;20474;-50
2021/05/04 05:30:34;;;;;;;8.60;7.17;;;10.40;94.00;;;;;;5050023;28;20466;-49
2021/05/04 05:33:01;;;;;;;7.00;6.30;;;10.40;94.00;;;;;;5049774;28;20442;-49
2021/05/04 05:35:27;;;;;;;7.67;6.90;;;10.40;93.40;;;;;;5050281;28;20485;-50
2021/05/04 05:37:54;;;;;;;6.90;6.20;;;10.50;93.30;;;;;;5050337;28;20522;-50
2021/05/04 05:40:20;;;;;;;9.37;7.00;;;11.00;93.20;;;;;;5050161;28;20461;-50
2021/05/04 05:42:47;;;;;;;8.37;6.60;;;10.60;92.80;;;;;;5049621;28;20861;-49
2021/05/04 05:45:15;;;;;;;9.33;7.27;;;10.70;93.00;;;;;;5050137;28;20978;-49
2021/05/04 05:47:41;;;;;;;7.23;6.43;;;11.00;93.00;;;;;;5049398;28;20563;-49
2021/05/04 05:50:08;;;;;;;8.63;6.80;;;10.90;92.60;;;;;;5049930;28;20441;-49
2021/05/04 05:52:34;;;;;;;9.30;6.47;;;10.80;92.60;;;;;;5049545;28;21152;-49
2021/05/04 05:55:01;;;;;;;8.30;6.40;;;10.70;92.10;;;;;;5049934;28;20604;-50
2021/05/04 05:57:28;;;;;;;8.80;6.43;;;11.30;92.50;;;;;;5049081;28;20449;-58
2021/05/04 05:59:54;;;;;;;11.37;7.00;;;11.00;92.10;;;;;;5049307;28;20445;-49
2021/05/04 06:02:20;;;;;;;8.23;6.00;;;11.30;92.20;;;;;;5049209;28;20973;-49
2021/05/04 06:04:46;;;;;;;8.83;6.87;;;11.20;91.80;;;;;;5049195;28;20454;-49
2021/05/04 06:07:13;;;;;;;9.63;6.77;;;11.30;91.60;;;;;;5048973;28;20913;-49
2021/05/04 06:09:40;;;;;;;7.33;5.60;;;11.40;91.50;;;;;;5048480;28;20427;-49
2021/05/04 06:12:08;;;;;;;7.93;6.53;;;11.60;91.50;;;;;;5030885;28;20529;-50
2021/05/04 06:14:34;;;;;;;7.47;6.70;;;12.00;91.30;;;;;;5048837;28;20457;-48
2021/05/04 06:17:01;;;;;;;7.67;6.20;;;12.10;91.50;;;;;;5048825;28;20445;-49
2021/05/04 06:19:27;;;;;;;8.00;6.47;;;12.00;91.20;;;;;;5050442;28;20432;-49
2021/05/04 06:21:53;;;;;;;13.63;6.60;;;12.20;90.90;;;;;;5049460;28;20435;-49
2021/05/04 06:24:19;;;;;;;9.20;6.27;;;12.20;90.60;;;;;;5049183;28;20454;-50
2021/05/04 06:26:45;;;;;;;10.70;7.40;;;12.30;90.30;;;;;;5049104;28;21000;-49
2021/05/04 06:29:13;;;;;;;7.67;5.77;;;12.30;90.10;;;;;;5051337;28;20467;-49
2021/05/04 06:31:39;;;;;;;7.03;5.90;;;12.50;90.00;;;;;;5053102;28;20437;-50
2021/05/04 06:34:05;;;;;;;7.10;6.40;;;12.50;89.40;;;;;;5053387;28;20428;-50
2021/05/04 06:36:32;;;;;;;9.70;7.70;;;12.20;88.50;;;;;;5053059;28;20463;-49
2021/05/04 06:38:59;;;;;;;9.17;6.53;;;12.70;88.30;;;;;;5052904;28;20956;-49
2021/05/04 06:41:25;;;;;;;7.67;5.87;;;13.00;88.20;;;;;;5052617;28;20778;-49
2021/05/04 06:43:53;;;;;;;8.83;6.50;;;13.00;87.30;;;;;;5052772;28;20438;-51
2021/05/04 06:46:20;;;;;;;8.37;6.50;;;12.80;85.70;;;;;;5052492;28;20485;-50
2021/05/04 06:48:46;;;;;;;7.03;5.70;;;13.30;85.60;;;;;;5053694;28;20434;-50
2021/05/04 06:51:13;;;;;;;10.00;6.77;;;13.20;84.60;;;;;;5053154;28;20437;-50
2021/05/04 06:53:39;;;;;;;7.73;6.73;;;13.10;83.90;;;;;;5052696;28;20745;-50
2021/05/04 06:56:05;;;;;;;9.50;5.80;;;13.50;83.50;;;;;;5052600;28;20456;-51
2021/05/04 06:58:31;;;;;;;7.40;6.23;;;13.30;83.60;;;;;;5053325;28;20443;-51
2021/05/04 07:00:58;;;;;;;8.87;5.67;;;13.20;82.20;;;;;;5052932;28;20624;-51
2021/05/04 07:03:25;;;;;;;7.77;6.00;;;13.30;82.20;;;;;;5052386;28;20447;-51
2021/05/04 07:05:51;;;;;;;6.83;5.63;;;13.30;82.70;;;;;;5052784;28;20537;-51
2021/05/04 07:08:17;;;;;;;9.50;5.57;;;13.30;82.20;;;;;;5053139;28;20561;-50
2021/05/04 07:10:43;;;;;;;9.10;6.00;;;13.50;82.20;;;;;;5053182;28;20434;-50
2021/05/04 07:13:14;;;;;;;7.67;6.27;;;13.50;81.40;;;;;;5052781;28;20440;-50
2021/05/04 07:15:41;;;;;;;9.10;5.53;;;13.40;81.10;;;;;;5052550;28;20457;-50
2021/05/04 07:18:09;;;;;;;7.03;6.00;;;13.50;81.70;;;;;;5052991;28;20476;-50
2021/05/04 07:20:37;;;;;;;10.60;6.30;;;13.40;80.30;;;;;;5052382;28;20438;-50
2021/05/04 07:23:07;;;;;;;8.77;5.60;;;13.40;80.20;;;;;;5052097;28;20435;-50
2021/05/04 07:25:33;;;;;;;9.57;5.87;;;12.90;79.10;;;;;;5052622;28;20958;-49
2021/05/04 07:28:00;;;;;;;7.37;5.70;;;13.30;79.30;;;;;;5052537;28;20469;-49
2021/05/04 07:30:26;;;;;;;8.30;6.80;;;13.10;77.90;;;;;;5034241;28;20546;-49
2021/05/04 07:32:53;;;;;;;7.73;4.93;;;13.40;79.10;;;;;;5051977;28;20442;-49
2021/05/04 07:35:19;;;;;;;13.27;5.60;;;13.60;78.60;;;;;;5051977;28;20448;-49
2021/05/04 07:37:46;;;;;;;6.57;5.53;;;13.40;78.70;;;;;;5051956;28;20425;-49
2021/05/04 07:40:13;;;;;;;8.47;5.80;;;13.20;78.00;;;;;;5051786;28;20445;-49
2021/05/04 07:42:39;;;;;;;12.07;5.80;;;13.20;78.90;;;;;;5051607;28;20457;-50
2021/05/04 07:45:08;;;;;;;11.23;7.30;;;13.30;80.90;;;;;;5051565;28;20938;-49
2021/05/04 07:47:34;;;;;;;10.50;5.17;;;12.80;82.30;;;;;;5052329;28;20503;-49
2021/05/04 07:50:01;;;;;;;8.00;5.97;;;13.50;85.40;;;;;;5034054;28;20449;-49
2021/05/04 07:52:27;;;;;;;7.73;5.30;;;13.00;87.20;;;;;;5051472;28;20519;-49
2021/05/04 07:54:55;;;;;;;11.40;6.40;;;13.10;89.30;;;;;;5052065;28;20539;-52
2021/05/04 07:57:22;;;;;;;8.40;5.57;;;13.30;90.40;;;;;;5051782;28;20426;-50
2021/05/04 07:59:51;;;;;;;8.97;6.00;;;12.80;91.70;;;;;;5051760;28;20438;-49
2021/05/04 08:02:18;;;;;;;9.13;5.47;;;13.00;92.30;;;;;;5051612;28;20527;-49
2021/05/04 08:04:44;;;;;;;8.33;5.87;;;13.00;93.40;;;;;;5051754;28;20458;-49
2021/05/04 08:07:10;;;;;;;5.70;5.00;;;12.40;93.80;;;;;;5051414;28;20471;-49
2021/05/04 08:09:37;;;;;;;7.20;5.90;;;12.90;94.60;;;;;;5051389;28;20476;-49
2021/05/04 08:12:06;;;;;;;8.33;5.80;;;12.70;95.20;;;;;;5051498;28;20448;-49
2021/05/04 08:14:33;;;;;;;6.67;6.07;;;13.20;95.70;;;;;;5050641;28;20464;-48
2021/05/04 08:17:00;;;;;;;6.10;5.50;;;13.00;95.80;;;;;;5051375;28;20425;-51
2021/05/04 08:19:27;;;;;;;7.63;6.80;;;13.00;95.90;;;;;;5051474;28;20445;-49
2021/05/04 08:21:53;;;;;;;10.17;6.50;;;12.90;95.70;;;;;;5052108;28;20461;-49
2021/05/04 08:24:20;;;;;;;6.80;6.10;;;13.40;95.80;;;;;;5051710;28;20555;-50
2021/05/04 08:26:47;;;;;;;6.10;5.60;;;13.30;95.50;;;;;;5051503;28;20844;-50
2021/05/04 08:29:14;;;;;;;7.17;5.97;;;13.40;95.10;;;;;;5051765;28;20448;-50
2021/05/04 08:31:41;;;;;;;8.50;6.10;;;13.80;94.80;;;;;;5051503;28;20434;-50
2021/05/04 08:34:08;;;;;;;6.80;6.10;;;13.70;94.30;;;;;;5032641;28;20449;-50
2021/05/04 08:36:34;;;;;;;6.37;5.10;;;13.70;93.80;;;;;;5051489;28;20452;-50
2021/05/04 08:39:02;;;;;;;5.30;4.83;;;13.90;94.00;;;;;;5051235;28;20499;-50
2021/05/04 08:41:29;;;;;;;6.20;4.97;;;13.60;93.60;;;;;;5051094;28;20891;-50
2021/05/04 08:43:55;;;;;;;7.63;5.43;;;14.00;93.70;;;;;;5050924;28;20801;-50
2021/05/04 08:46:24;;;;;;;6.33;5.73;;;14.00;93.20;;;;;;5051094;28;20887;-50
2021/05/04 08:48:51;;;;;;;5.50;4.83;;;14.40;93.10;;;;;;5051418;28;20521;-50
2021/05/04 08:51:18;;;;;;;5.60;5.10;;;13.90;93.00;;;;;;5050049;28;20663;-50
2021/05/04 08:53:45;;;;;;;6.27;5.40;;;14.10;92.80;;;;;;5051212;28;20431;-50
2021/05/04 08:56:13;;;;;;;6.40;4.97;;;14.40;93.00;;;;;;5050716;28;20989;-50
2021/05/04 08:58:40;;;;;;;7.00;4.93;;;14.20;92.60;;;;;;5050833;28;20456;-50
2021/05/04 09:01:07;;;;;;;5.83;5.07;;;14.40;92.50;;;;;;5050479;28;20458;-50
2021/05/04 09:03:39;;;;;;;8.53;6.03;;;14.40;92.20;;;;;;5050109;28;20983;-50
2021/05/04 09:06:09;;;;;;;6.03;5.33;;;14.00;91.70;;;;;;5050634;28;20552;-50
2021/05/04 09:08:40;;;;;;;5.93;4.80;;;14.50;91.60;;;;;;5050600;28;20510;-50
2021/05/04 09:11:27;;;;;;;6.03;4.73;;;14.80;91.30;;;;;;5049940;28;20430;-50
2021/05/04 09:13:59;;;;;;;6.93;4.93;;;14.60;91.30;;;;;;5050770;28;20433;-50
2021/05/04 09:16:39;;;;;;;5.40;4.87;;;14.80;91.10;;;;;;5032306;28;20541;-49
2021/05/04 09:19:17;;;;;;;7.20;4.87;;;15.00;90.20;;;;;;5050595;28;20460;-49
2021/05/04 09:21:44;;;;;;;6.23;4.33;;;15.00;89.90;;;;;;5050260;28;20440;-49
2021/05/04 09:24:25;;;;;;;5.07;4.43;;;14.60;89.20;;;;;;5031595;28;20453;-49
2021/05/04 09:27:01;;;;;;;6.17;4.33;;;15.00;88.40;;;;;;5050125;28;20783;-49
2021/05/04 09:29:29;;;;;;;5.00;4.47;;;15.20;87.90;;;;;;5049682;28;20425;-51
2021/05/04 09:32:11;;;;;;;5.60;4.73;;;15.00;87.60;;;;;;5050563;28;20450;-50
2021/05/04 09:34:47;;;;;;;7.70;4.20;;;15.20;88.60;;;;;;5050272;28;20447;-49
2021/05/04 09:37:35;;;;;;;6.77;6.10;;;15.30;87.70;;;;;;5049684;28;20476;-51
2021/05/04 09:40:25;;;;;;;4.73;4.30;;;15.20;86.50;;;;;;5050299;28;20427;-51
2021/05/04 09:43:03;;;;;;;4.20;3.33;;;15.50;85.40;;;;;;5049219;28;20439;-49
2021/05/04 09:45:30;;;;;;;7.67;4.20;;;15.70;84.40;;;;;;5049511;28;20846;-49
2021/05/04 09:48:24;;;;;;;4.17;3.77;;;15.70;83.00;;;;;;5049393;28;20939;-49
2021/05/04 09:51:03;;;;;;;6.20;3.10;;;15.50;80.70;;;;;;5049531;28;20487;-49
2021/05/04 09:53:39;;;;;;;5.77;3.30;;;15.80;79.90;;;;;;5049966;28;20474;-49
2021/05/04 09:56:07;;;;;;;5.73;3.73;;;15.50;79.50;;;;;;5049970;28;20469;-49
2021/05/04 09:58:35;;;;;;;4.60;3.07;;;15.70;78.20;;;;;;5049530;28;20423;-49
2021/05/04 10:01:05;;;;;;;3.93;3.20;;;15.50;78.00;;;;;;5049082;28;20465;-50
2021/05/04 10:03:32;;;;;;;5.93;3.70;;;15.50;78.00;;;;;;5049311;28;20427;-51
2021/05/04 10:06:00;;;;;;;7.00;4.03;;;15.70;77.50;;;;;;5049387;28;20609;-49
2021/05/04 10:08:29;;;;;;;8.93;4.30;;;15.80;76.60;;;;;;5049567;28;20771;-49
2021/05/04 10:10:58;;;;;;;4.53;3.30;;;16.00;73.90;;;;;;5049303;28;20492;-52
2021/05/04 10:13:27;;;;;;;4.90;2.97;;;16.20;74.20;;;;;;5049114;28;20529;-49
2021/05/04 10:15:54;;;;;;;5.53;3.10;;;15.80;73.30;;;;;;5049237;28;20457;-49
2021/05/04 10:18:22;;;;;;;7.77;3.40;;;16.40;73.10;;;;;;5049013;28;20785;-50
2021/05/04 10:20:49;;;;;;;4.33;2.90;;;16.60;72.00;;;;;;5048989;28;20427;-50
2021/05/04 10:23:16;;;;;;;5.23;3.00;;;16.30;69.00;;;;;;5049114;28;20987;-50
2021/05/04 10:25:43;;;;;;;5.53;3.00;;;16.70;68.50;;;;;;5049280;28;20852;-50
2021/05/04 10:28:11;;;;;;;3.07;2.77;;;16.40;69.10;;;;;;5031150;28;20475;-50
2021/05/04 10:30:38;;;;;;;11.53;3.57;;;16.60;69.40;;;;;;5049228;28;20437;-50
2021/05/04 10:33:09;;;;;;;4.93;3.00;;;16.60;66.40;;;;;;5048930;28;20496;-49
2021/05/04 10:35:46;;;;;;;9.33;3.13;;;16.60;66.00;;;;;;5048929;28;20452;-55
2021/05/04 10:38:14;;;;;;;8.20;3.23;;;16.70;65.70;;;;;;5049378;28;20492;-49
2021/05/04 10:40:42;;;;;;;6.47;2.97;;;16.80;65.00;;;;;;5049011;28;20512;-51
2021/05/04 10:43:48;;;;;;;6.40;2.80;;;16.70;65.60;;;;;;5048248;28;20808;-50
2021/05/04 10:46:39;;;;;;;5.10;2.40;;;16.50;64.70;;;;;;5055382;23;20483;-47
2021/05/04 10:49:06;;;;;;;7.80;3.00;;;16.60;64.20;;;;;;5051045;28;20911;-47
2021/05/04 10:51:47;;;;;;;5.93;3.10;;;17.00;64.90;;;;;;5050947;28;20432;-45
2021/05/04 10:54:15;;;;;;;7.93;3.20;;;16.70;63.40;;;;;;5049998;28;20469;-45
2021/05/04 10:56:47;;;;;;;6.90;2.80;;;17.00;64.00;;;;;;5050790;28;20442;-46
2021/05/04 10:59:34;;;;;;;4.50;2.70;;;16.30;62.80;;;;;;5051091;28;20726;-47
2021/05/04 11:02:27;;;;;;;12.93;2.83;;;16.70;63.60;;;;;;5051247;28;20443;-45
2021/05/04 11:04:55;;;;;;;4.50;2.40;;;16.90;63.70;;;;;;5050810;28;20498;-47
2021/05/04 11:07:56;;;;;;;9.27;2.87;;;16.80;63.60;;;;;;5032960;28;20843;-47
2021/05/04 11:10:25;;;;;;;11.10;2.70;;;17.10;64.20;;;;;;5051103;28;20785;-47
2021/05/04 11:12:51;;;;;;;4.73;2.93;;;16.80;64.40;;;;;;5050533;28;20811;-46
2021/05/04 11:15:23;;;;;;;6.50;2.87;;;16.90;64.90;;;;;;5052664;28;20450;-46
2021/05/04 11:17:50;;;;;;;5.97;3.10;;;16.90;65.30;;;;;;5054515;28;20439;-46
2021/05/04 11:20:31;;;;;;;5.13;2.50;;;16.60;65.50;;;;;;5036688;28;20448;-47
2021/05/04 11:22:57;;;;;;;6.00;2.83;;;16.60;65.40;;;;;;5054281;28;20443;-47
2021/05/04 11:25:31;;;;;;;7.53;3.10;;;16.60;65.90;;;;;;5054156;28;20455;-46
2021/05/04 11:27:58;;;;;;;5.33;3.20;;;16.70;65.70;;;;;;5055153;28;20478;-46
2021/05/04 11:30:35;;;;;;;4.20;2.13;;;16.80;65.70;;;;;;5054381;28;20428;-48
2021/05/04 11:33:28;;;;;;;5.77;2.30;;;16.80;65.50;;;;;;5054103;28;20406;-45
2021/05/04 11:35:55;;;;;;;7.23;3.23;;;16.80;65.30;;;;;;5054601;28;20533;-45
2021/05/04 11:38:23;;;;;;;4.70;2.50;;;17.30;65.40;;;;;;5054430;28;20432;-46
2021/05/04 11:40:49;;;;;;;4.13;2.50;;;17.40;65.80;;;;;;5054236;28;20473;-47
2021/05/04 11:43:17;;;;;;;11.87;2.47;;;17.20;65.80;;;;;;5053870;28;20440;-47
2021/05/04 11:45:43;;;;;;;10.83;2.90;;;17.10;65.90;;;;;;5054927;28;20548;-47
2021/05/04 11:48:10;;;;;;;7.17;2.73;;;16.70;65.70;;;;;;5054882;28;20788;-46
2021/05/04 11:50:39;;;;;;;8.07;2.50;;;16.90;66.30;;;;;;5036916;28;20753;-46
2021/05/04 11:53:07;;;;;;;10.10;3.17;;;17.10;66.90;;;;;;5053344;28;20444;-46
2021/05/04 11:55:36;;;;;;;4.63;2.53;;;17.00;67.20;;;;;;5053628;28;20505;-49
2021/05/04 11:58:04;;;;;;;7.30;2.90;;;16.80;67.60;;;;;;5053870;28;20451;-47
2021/05/04 12:00:33;;;;;;;4.27;2.40;;;16.80;66.80;;;;;;5053855;28;20506;-47
2021/05/04 12:03:06;;;;;;;3.07;2.10;;;17.00;66.70;;;;;;5053572;28;20450;-46
2021/05/04 12:05:32;;;;;;;9.27;2.37;;;16.60;66.20;;;;;;5053432;28;21022;-45
2021/05/04 12:08:01;;;;;;;7.70;2.37;;;17.20;67.10;;;;;;5053351;28;20486;-46
2021/05/04 12:10:30;;;;;;;4.23;2.43;;;16.70;67.30;;;;;;5053568;28;20440;-46
2021/05/04 12:12:59;;;;;;;5.33;2.90;;;16.70;67.30;;;;;;5034433;28;20451;-46
2021/05/04 12:15:27;;;;;;;7.10;2.67;;;16.50;67.40;;;;;;5053029;28;20843;-46
2021/05/04 12:18:06;;;;;;;2.30;2.03;;;16.80;67.50;;;;;;5035191;28;20447;-46
2021/05/04 12:20:34;;;;;;;4.70;2.40;;;16.80;67.00;;;;;;5054792;28;20429;-47
2021/05/04 12:23:04;;;;;;;6.07;3.13;;;16.30;66.20;;;;;;5052840;28;20463;-46
2021/05/04 12:25:47;;;;;;;14.70;3.80;;;16.50;67.00;;;;;;5052660;28;20543;-47
2021/05/04 12:28:15;;;;;;;5.00;2.60;;;16.50;66.60;;;;;;5052701;28;20470;-46
2021/05/04 12:30:42;;;;;;;5.13;2.20;;;16.50;66.90;;;;;;5053528;28;20527;-45
2021/05/04 12:33:09;;;;;;;3.30;2.50;;;16.50;67.30;;;;;;5053218;28;20797;-46
2021/05/04 12:35:43;;;;;;;6.03;2.57;;;16.60;67.40;;;;;;5053346;28;20471;-47
2021/05/04 12:38:16;;;;;;;6.50;2.70;;;16.60;66.90;;;;;;5035140;28;20461;-46
2021/05/04 12:40:53;;;;;;;4.47;2.53;;;16.80;67.30;;;;;;5052587;28;20430;-46
2021/05/04 12:43:25;;;;;;;4.90;2.20;;;16.50;66.60;;;;;;5051982;28;20811;-46
2021/05/04 12:46:14;;;;;;;6.13;2.70;;;16.60;67.20;;;;;;5052778;28;20474;-46
2021/05/04 12:48:42;;;;;;;13.03;2.60;;;16.40;67.40;;;;;;5052607;28;20483;-48
2021/05/04 12:51:11;;;;;;;3.87;2.30;;;16.60;67.80;;;;;;5052491;28;20822;-46
2021/05/04 12:53:40;;;;;;;7.40;2.53;;;16.50;67.70;;;;;;5053269;28;20524;-47
2021/05/04 12:56:10;;;;;;;4.63;2.50;;;16.50;67.50;;;;;;5053407;28;20467;-48